Time;durP1;ratioP1;P1;durP2;ratioP2;P2;SDS_P1;SDS_P2;PMS_P1;PMS_P2;Temp;Humidity;BMP_temperature;BMP_pressure;BME280_temperature;BME280_humidity;BME280_pressure;Samples;Min_cycle;Max_cycle;Signal;HPM_P1;HPM_P2
2022/11/10 00:00:03;;;;;;;;;;;12.10;99.90;;;;;;5069026;28;19916;-77
2022/11/10 00:02:28;;;;;;;;;;;12.20;99.90;;;;;;5070424;28;19921;-76
2022/11/10 00:04:54;;;;;;;;;;;12.20;99.90;;;;;;5070716;28;19917;-76
2022/11/10 00:07:23;;;;;;;;;;;12.20;99.90;;;;;;5069991;28;19912;-75
2022/11/10 00:09:48;;;;;;;;;;;12.10;99.90;;;;;;5070041;28;20386;-76
2022/11/10 00:12:14;;;;;;;;;;;12.10;99.90;;;;;;5052878;28;19925;-76
2022/11/10 00:17:23;;;;;;;;;;;12.20;99.90;;;;;;5055155;28;19955;-76
2022/11/10 00:19:49;;;;;;;;;;;12.20;99.90;;;;;;5068309;28;20463;-76
2022/11/10 00:22:14;;;;;;;;;;;12.20;99.90;;;;;;5069461;28;20433;-76
2022/11/10 00:24:40;;;;;;;;;;;12.20;99.90;;;;;;5061592;28;19916;-76
2022/11/10 00:27:06;;;;;;;;;;;12.20;99.90;;;;;;5062214;28;20035;-76
2022/11/10 00:29:31;;;;;;;;;;;12.20;99.90;;;;;;5065460;28;19951;-76
2022/11/10 00:31:57;;;;;;;;;;;12.30;99.90;;;;;;5066618;28;19950;-76
2022/11/10 00:34:23;;;;;;;;;;;12.30;99.90;;;;;;5069660;28;20345;-76
2022/11/10 00:36:49;;;;;;;;;;;12.40;99.90;;;;;;5068981;28;19991;-76
2022/11/10 00:39:15;;;;;;;;;;;12.40;99.90;;;;;;5068826;28;19928;-76
2022/11/10 00:41:40;;;;;;;;;;;12.50;99.90;;;;;;5068468;28;20568;-76
2022/11/10 00:44:06;;;;;;;;;;;12.40;99.90;;;;;;5071607;28;19916;-76
2022/11/10 00:46:31;;;;;;;;;;;12.50;99.90;;;;;;5066866;28;20066;-76
2022/11/10 00:48:57;;;;;;;;;;;12.50;99.90;;;;;;5068948;28;20031;-76
2022/11/10 00:51:24;;;;;;;;;;;12.40;99.90;;;;;;5069484;28;19928;-76
2022/11/10 00:53:49;;;;;;;;;;;12.40;99.90;;;;;;5069385;28;19916;-77
2022/11/10 00:56:15;;;;;;;;;;;12.30;99.90;;;;;;5064746;28;19916;-76
2022/11/10 00:58:41;;;;;;;;;;;12.30;99.90;;;;;;5069461;28;19928;-76
2022/11/10 01:01:07;;;;;;;;;;;12.30;99.90;;;;;;5069323;28;19926;-75
2022/11/10 01:03:33;;;;;;;;;;;12.40;99.90;;;;;;5068849;28;20462;-76
2022/11/10 01:06:03;;;;;;;;;;;12.30;99.90;;;;;;5067208;28;19923;-76
2022/11/10 01:08:28;;;;;;;;;;;12.30;99.90;;;;;;5067630;28;19947;-76
2022/11/10 01:11:00;;;;;;;;;;;12.30;99.90;;;;;;5068610;28;20038;-76
2022/11/10 01:13:27;;;;;;;;;;;12.20;99.90;;;;;;5067271;28;20149;-77
2022/11/10 01:15:53;;;;;;;;;;;12.30;99.90;;;;;;5068871;28;19916;-77
2022/11/10 01:18:18;;;;;;;;;;;12.20;99.90;;;;;;5068373;28;19916;-77
2022/11/10 01:20:48;;;;;;;;;;;12.20;99.90;;;;;;5067464;28;19916;-76
2022/11/10 01:23:14;;;;;;;;;;;12.20;99.90;;;;;;5068707;28;19967;-77
2022/11/10 01:25:39;;;;;;;;;;;12.10;99.90;;;;;;5066305;28;20665;-76
2022/11/10 01:28:05;;;;;;;;;;;12.10;99.90;;;;;;5069015;28;19916;-76
2022/11/10 01:30:30;;;;;;;;;;;12.10;99.90;;;;;;5067803;28;19917;-76
2022/11/10 01:32:56;;;;;;;;;;;12.10;99.90;;;;;;5059728;28;19970;-77
2022/11/10 01:35:21;;;;;;;;;;;12.10;99.90;;;;;;5060822;28;20446;-76
2022/11/10 01:37:47;;;;;;;;;;;12.10;99.90;;;;;;5066888;28;19982;-76
2022/11/10 01:40:12;;;;;;;;;;;12.00;99.90;;;;;;5065264;28;19923;-76
2022/11/10 01:42:58;;;;;;;;;;;12.10;99.90;;;;;;5072446;28;19923;-76
2022/11/10 01:45:24;;;;;;;;;;;12.10;99.90;;;;;;5062937;28;20395;-77
2022/11/10 01:47:50;;;;;;;;;;;12.00;99.90;;;;;;5067853;28;20007;-77
2022/11/10 01:50:17;;;;;;;;;;;12.00;99.90;;;;;;5066584;28;19916;-77
2022/11/10 01:52:45;;;;;;;;;;;12.00;99.90;;;;;;5062846;28;19924;-76
2022/11/10 01:55:11;;;;;;;;;;;12.10;99.90;;;;;;5066302;28;19916;-76
2022/11/10 01:57:37;;;;;;;;;;;12.00;99.90;;;;;;5062957;28;19917;-77
2022/11/10 02:00:03;;;;;;;;;;;11.90;99.90;;;;;;5068858;28;20006;-76
2022/11/10 02:02:35;;;;;;;;;;;12.00;99.90;;;;;;5068134;28;19923;-77
2022/11/10 02:05:02;;;;;;;;;;;12.00;99.90;;;;;;5068582;28;20486;-76
2022/11/10 02:07:28;;;;;;;;;;;12.00;99.90;;;;;;5065891;28;19946;-78
2022/11/10 02:09:53;;;;;;;;;;;12.00;99.90;;;;;;5067492;28;19959;-76
2022/11/10 02:12:35;;;;;;;;;;;12.00;99.90;;;;;;5068335;28;20431;-77
2022/11/10 02:15:05;;;;;;;;;;;11.90;99.90;;;;;;5068335;28;19931;-76
2022/11/10 02:17:31;;;;;;;;;;;11.80;99.90;;;;;;5065638;28;19917;-76
2022/11/10 02:20:03;;;;;;;;;;;11.90;99.90;;;;;;5063995;28;19917;-75
2022/11/10 02:22:29;;;;;;;;;;;11.90;99.90;;;;;;5061672;28;19920;-76
2022/11/10 02:24:55;;;;;;;;;;;11.90;99.90;;;;;;5065559;28;19989;-76
2022/11/10 02:27:20;;;;;;;;;;;11.80;99.90;;;;;;5067332;28;19950;-76
2022/11/10 02:29:46;;;;;;;;;;;11.80;99.90;;;;;;5067146;28;19925;-76
2022/11/10 02:32:11;;;;;;;;;;;11.70;99.90;;;;;;5067196;28;20007;-76
2022/11/10 02:34:37;;;;;;;;;;;11.80;99.90;;;;;;5067355;28;19916;-76
2022/11/10 02:37:02;;;;;;;;;;;11.80;99.90;;;;;;5066939;28;19959;-76
2022/11/10 02:39:28;;;;;;;;;;;11.70;99.90;;;;;;5066334;28;20019;-76
2022/11/10 02:41:53;;;;;;;;;;;11.80;99.90;;;;;;5064695;28;19951;-76
2022/11/10 02:44:19;;;;;;;;;;;11.80;99.90;;;;;;5048336;28;20004;-75
2022/11/10 02:46:44;;;;;;;;;;;11.70;99.90;;;;;;5058773;28;19969;-75
2022/11/10 02:49:10;;;;;;;;;;;11.80;99.90;;;;;;5066771;28;19924;-75
2022/11/10 02:51:35;;;;;;;;;;;11.60;99.90;;;;;;5067159;28;19927;-76
2022/11/10 02:54:01;;;;;;;;;;;11.60;99.90;;;;;;5066476;28;20474;-75
2022/11/10 02:56:26;;;;;;;;;;;11.60;99.90;;;;;;5061255;28;19916;-76
2022/11/10 02:58:52;;;;;;;;;;;11.60;99.90;;;;;;5060235;28;19917;-77
2022/11/10 03:01:17;;;;;;;;;;;11.60;99.90;;;;;;5057639;28;19916;-76
2022/11/10 03:03:43;;;;;;;;;;;11.50;99.90;;;;;;5067119;28;19923;-76
2022/11/10 03:06:08;;;;;;;;;;;11.40;99.90;;;;;;5056263;28;19931;-76
2022/11/10 03:08:34;;;;;;;;;;;11.30;99.90;;;;;;5067123;28;19919;-76
2022/11/10 03:10:59;;;;;;;;;;;11.20;99.90;;;;;;5066109;28;19974;-76
2022/11/10 03:13:25;;;;;;;;;;;11.20;99.90;;;;;;5047325;28;19917;-76
2022/11/10 03:15:51;;;;;;;;;;;11.20;99.90;;;;;;5065967;28;20363;-76
2022/11/10 03:18:16;;;;;;;;;;;11.20;99.90;;;;;;5062059;28;20600;-76
2022/11/10 03:20:42;;;;;;;;;;;11.20;99.90;;;;;;5054167;28;19918;-76
2022/11/10 03:23:08;;;;;;;;;;;11.20;99.90;;;;;;5066420;28;19916;-76
2022/11/10 03:25:33;;;;;;;;;;;11.20;99.90;;;;;;5067495;28;19956;-77
2022/11/10 03:27:59;;;;;;;;;;;11.20;99.90;;;;;;5066784;28;19923;-75
2022/11/10 03:30:25;;;;;;;;;;;11.10;99.90;;;;;;5065801;28;19920;-75
2022/11/10 03:32:50;;;;;;;;;;;11.10;99.90;;;;;;5068202;28;19921;-76
2022/11/10 03:35:16;;;;;;;;;;;11.10;99.90;;;;;;5063538;28;19925;-77
2022/11/10 03:37:41;;;;;;;;;;;11.10;99.90;;;;;;5070421;28;20027;-76
2022/11/10 03:40:07;;;;;;;;;;;11.10;99.90;;;;;;5069232;28;19944;-76
2022/11/10 03:42:33;;;;;;;;;;;11.20;99.90;;;;;;5069206;28;19916;-75
2022/11/10 03:44:58;;;;;;;;;;;11.30;99.90;;;;;;5062166;28;20354;-76
2022/11/10 03:47:24;;;;;;;;;;;11.40;99.90;;;;;;5064204;28;20413;-76
2022/11/10 03:49:49;;;;;;;;;;;11.40;99.90;;;;;;5069754;28;20015;-76
2022/11/10 03:52:15;;;;;;;;;;;11.30;99.90;;;;;;5069578;28;19920;-76
2022/11/10 03:54:41;;;;;;;;;;;11.30;99.90;;;;;;5085936;28;19990;-76
2022/11/10 03:57:06;;;;;;;;;;;11.30;99.90;;;;;;5068164;28;19923;-76
2022/11/10 03:59:32;;;;;;;;;;;11.30;99.90;;;;;;5070033;28;20034;-76
2022/11/10 04:01:57;;;;;;;;;;;11.20;99.90;;;;;;5070055;28;19927;-76
2022/11/10 04:09:52;;;;;;;;;;;10.90;99.90;;;;;;5063142;28;19956;-76
2022/11/10 04:17:49;;;;;;;;;;;10.50;99.90;;;;;;5070563;28;19978;-74
2022/11/10 04:20:15;;;;;;;;;;;10.40;99.90;;;;;;5061662;28;19916;-75
2022/11/10 04:25:24;;;;;;;;;;;10.30;99.90;;;;;;5069081;28;19922;-75
2022/11/10 04:27:50;;;;;;;;;;;10.30;99.90;;;;;;5069554;28;19917;-76
2022/11/10 04:30:15;;;;;;;;;;;10.30;99.90;;;;;;5068171;28;19919;-76
2022/11/10 04:32:41;;;;;;;;;;;10.30;99.90;;;;;;5068893;28;19960;-76
2022/11/10 04:35:07;;;;;;;;;;;10.30;99.90;;;;;;5068845;28;19912;-75
2022/11/10 04:37:32;;;;;;;;;;;10.30;99.90;;;;;;5069121;28;19916;-76
2022/11/10 04:39:58;;;;;;;;;;;10.30;99.90;;;;;;5069401;28;19916;-76
2022/11/10 04:42:23;;;;;;;;;;;10.30;99.90;;;;;;5057450;28;19912;-76
2022/11/10 04:44:49;;;;;;;;;;;10.50;99.90;;;;;;5065835;28;19916;-76
2022/11/10 04:47:14;;;;;;;;;;;10.60;99.90;;;;;;5067454;28;19912;-75
2022/11/10 04:49:40;;;;;;;;;;;10.60;99.90;;;;;;5068644;28;19917;-75
2022/11/10 04:52:05;;;;;;;;;;;10.60;99.90;;;;;;5067445;28;19920;-75
2022/11/10 04:54:31;;;;;;;;;;;10.60;99.90;;;;;;5066397;28;19938;-76
2022/11/10 04:56:56;;;;;;;;;;;10.60;99.90;;;;;;5062702;28;19913;-76
2022/11/10 04:59:22;;;;;;;;;;;10.60;99.90;;;;;;5062797;28;19920;-76
2022/11/10 05:01:47;;;;;;;;;;;10.60;99.90;;;;;;5068783;28;19917;-76
2022/11/10 05:04:13;;;;;;;;;;;10.60;99.90;;;;;;5068950;28;20015;-75
2022/11/10 05:06:38;;;;;;;;;;;10.60;99.90;;;;;;5067948;28;19931;-75
2022/11/10 05:09:04;;;;;;;;;;;10.70;99.90;;;;;;5068377;28;19931;-75
2022/11/10 05:11:29;;;;;;;;;;;10.70;99.90;;;;;;5067785;28;19925;-76
2022/11/10 05:13:55;;;;;;;;;;;10.60;99.90;;;;;;5068468;28;19917;-76
2022/11/10 05:16:20;;;;;;;;;;;10.60;99.90;;;;;;5068929;28;19951;-75
2022/11/10 05:18:46;;;;;;;;;;;10.70;99.90;;;;;;5068323;28;19917;-76
2022/11/10 05:21:11;;;;;;;;;;;10.70;99.90;;;;;;5060515;28;19921;-75
2022/11/10 05:23:37;;;;;;;;;;;10.60;99.90;;;;;;5068079;28;19924;-75
2022/11/10 05:26:12;;;;;;;;;;;10.60;99.90;;;;;;5068447;28;19923;-75
2022/11/10 05:28:39;;;;;;;;;;;10.70;99.90;;;;;;5068109;28;19924;-75
2022/11/10 05:31:04;;;;;;;;;;;10.70;99.90;;;;;;5067330;28;20015;-75
2022/11/10 05:33:30;;;;;;;;;;;10.80;99.90;;;;;;5066677;28;20007;-76
2022/11/10 05:35:56;;;;;;;;;;;10.70;99.90;;;;;;5067774;28;20018;-76
2022/11/10 05:38:21;;;;;;;;;;;10.70;99.90;;;;;;5067595;28;19946;-76
2022/11/10 05:40:47;;;;;;;;;;;10.70;99.90;;;;;;5073904;28;19912;-76
2022/11/10 05:43:12;;;;;;;;;;;10.60;99.90;;;;;;5059116;28;19916;-77
2022/11/10 05:45:38;;;;;;;;;;;10.50;99.90;;;;;;5066727;28;20030;-78
2022/11/10 05:48:04;;;;;;;;;;;10.40;99.90;;;;;;5067100;28;20848;-78
2022/11/10 05:50:29;;;;;;;;;;;10.40;99.90;;;;;;5061588;28;20691;-79
2022/11/10 05:52:55;;;;;;;;;;;10.20;99.90;;;;;;5082801;28;19928;-79
2022/11/10 05:55:22;;;;;;;;;;;10.10;99.90;;;;;;5068309;28;19923;-80
2022/11/10 05:57:48;;;;;;;;;;;10.00;99.90;;;;;;5065359;28;19917;-78
2022/11/10 06:00:15;;;;;;;;;;;10.00;99.90;;;;;;5064922;28;19924;-80
2022/11/10 06:02:41;;;;;;;;;;;9.90;99.90;;;;;;5062023;28;19998;-79
2022/11/10 06:05:07;;;;;;;;;;;9.80;99.90;;;;;;5066798;28;20478;-78
2022/11/10 06:07:33;;;;;;;;;;;9.80;99.90;;;;;;5067583;28;19917;-78
2022/11/10 06:09:58;;;;;;;;;;;9.80;99.90;;;;;;5057036;28;19927;-78
2022/11/10 06:12:24;;;;;;;;;;;9.80;99.90;;;;;;5049010;28;19928;-78
2022/11/10 06:14:52;;;;;;;;;;;9.80;99.90;;;;;;5050876;28;19916;-78
2022/11/10 06:17:18;;;;;;;;;;;9.80;99.90;;;;;;5084937;28;19932;-77
2022/11/10 06:19:44;;;;;;;;;;;9.90;99.90;;;;;;5054809;28;19916;-79
2022/11/10 06:22:10;;;;;;;;;;;9.90;99.90;;;;;;5054200;28;19927;-76
2022/11/10 06:24:35;;;;;;;;;;;9.80;99.90;;;;;;5062275;28;19920;-77
2022/11/10 06:27:01;;;;;;;;;;;9.60;99.90;;;;;;5058130;28;19925;-75
2022/11/10 06:29:26;;;;;;;;;;;9.50;99.90;;;;;;5061660;28;19917;-76
2022/11/10 06:31:52;;;;;;;;;;;9.40;99.90;;;;;;5062769;28;20014;-75
2022/11/10 06:34:17;;;;;;;;;;;9.40;99.90;;;;;;5066237;28;19959;-75
2022/11/10 06:36:43;;;;;;;;;;;9.30;99.90;;;;;;5066275;28;20024;-75
2022/11/10 06:39:08;;;;;;;;;;;9.30;99.90;;;;;;5067341;28;19916;-75
2022/11/10 06:41:34;;;;;;;;;;;9.30;99.90;;;;;;5065392;28;19917;-75
2022/11/10 06:43:59;;;;;;;;;;;9.20;99.90;;;;;;5063490;28;19920;-75
2022/11/10 06:46:25;;;;;;;;;;;9.20;99.90;;;;;;5067006;28;19916;-75
2022/11/10 06:48:50;;;;;;;;;;;9.30;99.90;;;;;;5066029;28;20795;-74
2022/11/10 06:51:16;;;;;;;;;;;9.20;99.90;;;;;;5066748;28;19920;-74
2022/11/10 06:53:42;;;;;;;;;;;9.30;99.90;;;;;;5065944;28;19924;-74
2022/11/10 06:56:07;;;;;;;;;;;9.20;99.90;;;;;;5066439;28;19952;-80
2022/11/10 06:58:33;;;;;;;;;;;9.20;99.90;;;;;;5066414;28;20019;-85
2022/11/10 07:01:00;;;;;;;;;;;9.30;99.90;;;;;;5065706;28;19917;-85
2022/11/10 07:03:25;;;;;;;;;;;9.30;99.90;;;;;;5065341;28;20671;-80
2022/11/10 07:05:51;;;;;;;;;;;9.20;99.90;;;;;;5067751;28;19928;-80
2022/11/10 07:08:16;;;;;;;;;;;9.30;99.90;;;;;;5070194;28;19943;-80
2022/11/10 07:10:43;;;;;;;;;;;9.20;99.90;;;;;;5069818;28;19952;-80
2022/11/10 07:13:09;;;;;;;;;;;9.30;99.90;;;;;;5070893;28;19913;-80
2022/11/10 07:15:35;;;;;;;;;;;9.10;99.90;;;;;;5070423;28;19966;-80
2022/11/10 07:18:01;;;;;;;;;;;9.10;99.90;;;;;;5070569;28;19920;-80
2022/11/10 07:20:27;;;;;;;;;;;9.10;99.90;;;;;;5066503;28;19964;-80
2022/11/10 07:22:57;;;;;;;;;;;9.10;99.90;;;;;;5062035;28;19952;-81
2022/11/10 07:25:23;;;;;;;;;;;9.30;99.90;;;;;;5071538;28;20397;-79
2022/11/10 07:27:58;;;;;;;;;;;9.50;99.90;;;;;;5070903;28;19916;-81
2022/11/10 07:30:25;;;;;;;;;;;9.40;99.90;;;;;;5069204;28;19912;-80
2022/11/10 07:33:08;;;;;;;;;;;9.40;99.90;;;;;;5070339;28;19920;-81
2022/11/10 07:35:34;;;;;;;;;;;9.40;99.90;;;;;;5066725;28;20354;-80
2022/11/10 07:38:01;;;;;;;;;;;9.60;99.90;;;;;;5067856;28;19916;-80
2022/11/10 07:40:27;;;;;;;;;;;9.90;99.90;;;;;;5076630;28;19909;-80
2022/11/10 07:42:52;;;;;;;;;;;10.40;99.90;;;;;;5071479;28;20352;-82
2022/11/10 07:45:18;;;;;;;;;;;10.60;99.90;;;;;;5058586;28;19913;-83
2022/11/10 07:47:43;;;;;;;;;;;10.90;99.90;;;;;;5070659;28;19912;-75
2022/11/10 07:50:09;;;;;;;;;;;11.30;99.90;;;;;;5069461;28;19917;-76
2022/11/10 07:52:35;;;;;;;;;;;10.80;99.90;;;;;;5068741;28;19920;-75
2022/11/10 07:55:00;;;;;;;;;;;10.50;99.90;;;;;;5057366;28;19978;-74
2022/11/10 07:57:26;;;;;;;;;;;10.40;99.90;;;;;;5059343;28;20749;-75
2022/11/10 07:59:51;;;;;;;;;;;10.30;99.90;;;;;;5063930;28;19990;-75
2022/11/10 08:02:17;;;;;;;;;;;10.40;99.90;;;;;;5070422;28;19913;-75
2022/11/10 08:04:42;;;;;;;;;;;10.30;99.90;;;;;;5063222;28;19938;-75
2022/11/10 08:07:08;;;;;;;;;;;10.30;99.90;;;;;;5067906;28;19913;-75
2022/11/10 08:09:33;;;;;;;;;;;10.30;99.90;;;;;;5066634;28;20299;-75
2022/11/10 08:11:59;;;;;;;;;;;10.40;99.90;;;;;;5070335;28;19965;-74
2022/11/10 08:14:24;;;;;;;;;;;10.50;99.90;;;;;;5068005;28;19962;-76
2022/11/10 08:16:50;;;;;;;;;;;10.40;99.90;;;;;;5070425;28;19913;-74
2022/11/10 08:19:16;;;;;;;;;;;10.50;99.90;;;;;;5069417;28;19912;-75
2022/11/10 08:21:41;;;;;;;;;;;10.80;99.90;;;;;;5063377;28;20093;-75
2022/11/10 08:24:07;;;;;;;;;;;11.10;99.90;;;;;;5070059;28;19913;-76
2022/11/10 08:26:32;;;;;;;;;;;10.80;99.90;;;;;;5069664;28;19921;-75
2022/11/10 08:28:58;;;;;;;;;;;10.80;99.90;;;;;;5057370;28;19912;-76
2022/11/10 08:31:23;;;;;;;;;;;10.80;99.90;;;;;;5069766;28;19939;-75
2022/11/10 08:33:49;;;;;;;;;;;10.80;99.90;;;;;;5057897;28;20636;-76
2022/11/10 08:36:15;;;;;;;;;;;10.90;99.90;;;;;;5070307;28;19912;-74
2022/11/10 08:38:40;;;;;;;;;;;10.70;99.90;;;;;;5056959;28;19955;-75
2022/11/10 08:41:06;;;;;;;;;;;10.70;99.90;;;;;;5050874;28;19913;-75
2022/11/10 08:43:31;;;;;;;;;;;10.80;99.90;;;;;;5065964;28;20477;-75
2022/11/10 08:45:57;;;;;;;;;;;11.00;99.90;;;;;;5081119;28;19942;-75
2022/11/10 08:48:23;;;;;;;;;;;10.90;99.90;;;;;;5068026;28;19920;-74
2022/11/10 08:50:49;;;;;;;;;;;11.00;99.90;;;;;;5069176;28;20023;-75
2022/11/10 08:53:16;;;;;;;;;;;11.00;99.90;;;;;;5063981;28;21128;-75
2022/11/10 08:55:42;;;;;;;;;;;11.10;99.90;;;;;;5061348;28;20486;-75
2022/11/10 08:58:12;;;;;;;;;;;11.30;99.90;;;;;;5068325;28;19912;-75
2022/11/10 09:00:37;;;;;;;;;;;11.20;99.90;;;;;;5068582;28;20439;-75
2022/11/10 09:03:04;;;;;;;;;;;11.40;99.90;;;;;;5063796;28;19951;-75
2022/11/10 09:05:30;;;;;;;;;;;11.30;99.90;;;;;;5074484;28;19924;-75
2022/11/10 09:07:56;;;;;;;;;;;11.40;99.90;;;;;;5068416;28;19912;-75
2022/11/10 09:10:21;;;;;;;;;;;11.50;99.90;;;;;;5068721;28;19912;-74
2022/11/10 09:12:47;;;;;;;;;;;11.50;99.90;;;;;;5056004;28;20388;-74
2022/11/10 09:15:12;;;;;;;;;;;11.40;99.90;;;;;;5059654;28;19956;-75
2022/11/10 09:17:39;;;;;;;;;;;11.40;99.90;;;;;;5065096;28;19962;-75
2022/11/10 09:20:06;;;;;;;;;;;11.40;99.90;;;;;;5064436;28;19981;-74
2022/11/10 09:22:34;;;;;;;;;;;11.40;99.90;;;;;;5067594;28;19916;-75
2022/11/10 09:24:59;;;;;;;;;;;11.20;99.90;;;;;;5066591;28;19938;-75
2022/11/10 09:27:25;;;;;;;;;;;11.20;99.90;;;;;;5068133;28;19912;-75
2022/11/10 09:29:50;;;;;;;;;;;11.10;99.90;;;;;;5061565;28;19948;-74
2022/11/10 09:32:16;;;;;;;;;;;11.30;99.90;;;;;;5068043;28;19923;-75
2022/11/10 09:34:42;;;;;;;;;;;11.40;99.90;;;;;;5068602;28;19919;-75
2022/11/10 09:37:08;;;;;;;;;;;11.50;99.90;;;;;;5067759;28;19918;-75
2022/11/10 09:39:33;;;;;;;;;;;11.40;99.90;;;;;;5062192;28;19912;-75
2022/11/10 09:41:59;;;;;;;;;;;11.50;99.90;;;;;;5065176;28;19936;-75
2022/11/10 09:44:26;;;;;;;;;;;11.50;99.90;;;;;;5062503;28;19923;-75
2022/11/10 09:47:08;;;;;;;;;;;11.30;99.90;;;;;;5067886;28;19912;-75
2022/11/10 09:49:34;;;;;;;;;;;11.30;99.90;;;;;;5067671;28;19913;-75
2022/11/10 09:52:00;;;;;;;;;;;11.50;99.90;;;;;;5067662;28;19924;-75
2022/11/10 09:54:31;;;;;;;;;;;11.70;99.90;;;;;;5067735;28;19936;-74
2022/11/10 09:56:59;;;;;;;;;;;11.60;99.90;;;;;;5068082;28;20291;-75
2022/11/10 09:59:26;;;;;;;;;;;11.70;99.90;;;;;;5066908;28;19913;-75
2022/11/10 10:02:04;;;;;;;;;;;11.60;99.90;;;;;;5067041;28;20386;-75
2022/11/10 10:04:29;;;;;;;;;;;11.60;99.90;;;;;;5066909;28;20031;-75
2022/11/10 10:07:13;;;;;;;;;;;11.80;99.90;;;;;;5067776;28;20043;-75
2022/11/10 10:09:41;;;;;;;;;;;12.00;99.90;;;;;;5095884;28;19999;-75
2022/11/10 10:12:07;;;;;;;;;;;11.90;99.90;;;;;;5068130;28;19917;-75
2022/11/10 10:14:38;;;;;;;;;;;11.90;99.90;;;;;;5068252;28;20391;-75
2022/11/10 10:17:23;;;;;;;;;;;11.80;99.90;;;;;;5067722;28;19913;-74
2022/11/10 10:19:55;;;;;;;;;;;11.90;99.90;;;;;;5066023;28;19913;-75
2022/11/10 10:22:36;;;;;;;;;;;11.90;99.90;;;;;;5066170;28;19920;-75
2022/11/10 10:25:08;;;;;;;;;;;11.70;99.90;;;;;;5067898;28;20451;-75
2022/11/10 10:27:37;;;;;;;;;;;11.90;99.90;;;;;;5067359;28;20407;-75
2022/11/10 10:30:10;;;;;;;;;;;11.90;99.90;;;;;;5066409;28;19932;-75
2022/11/10 10:32:36;;;;;;;;;;;11.70;99.90;;;;;;5067341;28;20027;-75
2022/11/10 10:35:01;;;;;;;;;;;11.80;99.90;;;;;;5066122;28;20089;-75
2022/11/10 10:37:45;;;;;;;;;;;11.70;99.90;;;;;;5067533;28;19955;-75
2022/11/10 10:40:15;;;;;;;;;;;11.80;99.90;;;;;;5068020;28;19913;-75
2022/11/10 10:42:41;;;;;;;;;;;11.80;99.90;;;;;;5069689;28;19913;-75
2022/11/10 10:45:14;;;;;;;;;;;11.80;99.90;;;;;;5071487;28;19913;-75
2022/11/10 10:47:40;;;;;;;;;;;12.00;99.90;;;;;;5065526;28;20736;-75
2022/11/10 10:50:24;;;;;;;;;;;11.90;99.90;;;;;;5071214;28;19994;-75
2022/11/10 10:53:04;;;;;;;;;;;12.00;99.90;;;;;;5080965;28;19916;-75
2022/11/10 10:55:29;;;;;;;;;;;11.90;99.90;;;;;;5069284;28;19912;-75
2022/11/10 10:57:57;;;;;;;;;;;12.10;99.90;;;;;;5070364;28;19912;-75
2022/11/10 11:00:23;;;;;;;;;;;12.20;99.90;;;;;;5069763;28;19959;-75
2022/11/10 11:03:12;;;;;;;;;;;12.40;99.90;;;;;;5070534;28;20015;-75
2022/11/10 11:05:38;;;;;;;;;;;12.50;99.90;;;;;;5063811;28;19973;-75
2022/11/10 11:08:04;;;;;;;;;;;12.20;99.90;;;;;;5071012;28;19920;-75
2022/11/10 11:10:33;;;;;;;;;;;12.40;99.90;;;;;;5071752;28;19920;-75
2022/11/10 11:13:19;;;;;;;;;;;12.40;99.90;;;;;;5070971;28;19917;-75
2022/11/10 11:15:55;;;;;;;;;;;12.20;99.90;;;;;;5069632;28;20206;-74
2022/11/10 11:18:21;;;;;;;;;;;12.50;99.90;;;;;;5063166;28;19912;-75
2022/11/10 11:20:51;;;;;;;;;;;12.40;99.90;;;;;;5066600;28;20338;-74
2022/11/10 11:23:32;;;;;;;;;;;12.60;99.90;;;;;;5070862;28;19908;-74
2022/11/10 11:26:01;;;;;;;;;;;12.50;99.90;;;;;;5068170;28;19917;-74
2022/11/10 11:28:53;;;;;;;;;;;12.90;99.90;;;;;;5063179;28;19912;-74
2022/11/10 11:31:18;;;;;;;;;;;12.60;99.90;;;;;;5062649;28;19964;-75
2022/11/10 11:33:56;;;;;;;;;;;12.50;99.90;;;;;;5070153;28;20759;-75
2022/11/10 11:36:33;;;;;;;;;;;12.40;99.90;;;;;;5065228;28;19962;-75
2022/11/10 11:39:18;;;;;;;;;;;12.60;99.90;;;;;;5063779;28;19913;-75
2022/11/10 11:41:43;;;;;;;;;;;12.70;99.90;;;;;;5063917;28;19919;-75
2022/11/10 11:44:25;;;;;;;;;;;12.60;99.90;;;;;;5070680;28;19999;-74
2022/11/10 11:47:09;;;;;;;;;;;12.90;99.90;;;;;;5096163;28;19920;-75
2022/11/10 11:49:55;;;;;;;;;;;12.50;99.90;;;;;;5066969;28;20030;-75
2022/11/10 11:52:23;;;;;;;;;;;12.70;99.90;;;;;;5051501;28;19917;-75
2022/11/10 11:54:58;;;;;;;;;;;12.60;99.90;;;;;;5069801;28;19926;-75
2022/11/10 11:57:23;;;;;;;;;;;12.70;99.90;;;;;;5068338;28;19912;-75
2022/11/10 11:59:55;;;;;;;;;;;13.10;99.90;;;;;;5069841;28;19939;-75
2022/11/10 12:02:20;;;;;;;;;;;12.80;99.90;;;;;;5069803;28;19912;-74
2022/11/10 12:05:04;;;;;;;;;;;13.00;99.90;;;;;;5069532;28;19942;-76
2022/11/10 12:07:43;;;;;;;;;;;13.00;99.90;;;;;;5069479;28;19912;-75
2022/11/10 12:10:27;;;;;;;;;;;12.80;99.90;;;;;;5069831;28;19912;-74
2022/11/10 12:12:59;;;;;;;;;;;12.80;99.90;;;;;;5067515;28;20011;-75
2022/11/10 12:15:32;;;;;;;;;;;12.80;99.90;;;;;;5068446;28;20021;-75
2022/11/10 12:18:09;;;;;;;;;;;12.60;99.90;;;;;;5060192;28;19958;-75
2022/11/10 12:20:54;;;;;;;;;;;12.40;99.90;;;;;;5065593;28;19962;-75
2022/11/10 12:23:29;;;;;;;;;;;12.10;99.90;;;;;;5067934;28;19913;-75
2022/11/10 12:26:01;;;;;;;;;;;12.10;99.90;;;;;;5069652;28;20844;-75
2022/11/10 12:28:29;;;;;;;;;;;12.20;99.90;;;;;;5069435;28;19916;-75
2022/11/10 12:30:58;;;;;;;;;;;12.40;99.90;;;;;;5061002;28;20533;-75
2022/11/10 12:33:33;;;;;;;;;;;12.50;99.90;;;;;;5069308;28;19913;-75
2022/11/10 12:36:01;;;;;;;;;;;12.40;99.90;;;;;;5069371;28;19955;-75
2022/11/10 12:38:35;;;;;;;;;;;12.40;99.90;;;;;;5067780;28;19936;-75
2022/11/10 12:41:03;;;;;;;;;;;12.40;99.90;;;;;;5067803;28;19913;-75
2022/11/10 12:43:38;;;;;;;;;;;12.50;99.90;;;;;;5069146;28;19912;-75
2022/11/10 12:46:07;;;;;;;;;;;12.40;99.90;;;;;;5067706;28;19913;-75
2022/11/10 12:48:39;;;;;;;;;;;12.20;99.90;;;;;;5068890;28;19916;-75
2022/11/10 12:51:13;;;;;;;;;;;12.00;99.90;;;;;;5069112;28;19986;-75
2022/11/10 12:53:40;;;;;;;;;;;12.00;99.90;;;;;;5090123;28;19935;-75
2022/11/10 12:56:20;;;;;;;;;;;11.90;99.90;;;;;;5067089;28;19983;-75
2022/11/10 12:58:46;;;;;;;;;;;11.90;99.90;;;;;;5068913;28;19959;-75
2022/11/10 13:01:14;;;;;;;;;;;11.80;99.90;;;;;;5068952;28;19939;-75
2022/11/10 13:03:52;;;;;;;;;;;11.70;99.90;;;;;;5068980;28;19923;-75
2022/11/10 13:06:25;;;;;;;;;;;11.70;99.90;;;;;;5068438;28;19932;-75
2022/11/10 13:08:51;;;;;;;;;;;11.60;99.90;;;;;;5068805;28;19913;-75
2022/11/10 13:11:16;;;;;;;;;;;11.60;99.90;;;;;;5068204;28;20651;-75
2022/11/10 13:13:51;;;;;;;;;;;11.70;99.90;;;;;;5068869;28;19920;-75
2022/11/10 13:16:35;;;;;;;;;;;11.70;99.90;;;;;;5068765;28;19909;-75
2022/11/10 13:19:01;;;;;;;;;;;11.80;99.90;;;;;;5067277;28;19919;-76
2022/11/10 13:21:56;;;;;;;;;;;11.80;99.90;;;;;;5067708;28;19920;-75
2022/11/10 13:24:23;;;;;;;;;;;11.70;99.90;;;;;;5067051;28;19919;-75
2022/11/10 13:26:51;;;;;;;;;;;11.70;99.90;;;;;;5069035;28;19919;-74
2022/11/10 13:29:35;;;;;;;;;;;11.70;99.90;;;;;;5064396;28;19935;-75
2022/11/10 13:32:06;;;;;;;;;;;11.60;99.90;;;;;;5066364;28;19917;-75
2022/11/10 13:34:32;;;;;;;;;;;11.60;99.90;;;;;;5068471;28;19916;-74
2022/11/10 13:36:58;;;;;;;;;;;11.60;99.90;;;;;;5068448;28;19923;-76
2022/11/10 13:39:26;;;;;;;;;;;11.60;99.90;;;;;;5068464;28;20007;-75
2022/11/10 13:42:07;;;;;;;;;;;11.60;99.90;;;;;;5068060;28;19917;-75
2022/11/10 13:44:40;;;;;;;;;;;11.70;99.90;;;;;;5057506;28;19944;-75
2022/11/10 13:47:06;;;;;;;;;;;11.60;99.90;;;;;;5062369;28;20300;-74
2022/11/10 13:49:47;;;;;;;;;;;11.60;99.90;;;;;;5067990;28;19913;-75
2022/11/10 13:52:18;;;;;;;;;;;11.60;99.90;;;;;;5067956;28;19967;-74
2022/11/10 13:54:43;;;;;;;;;;;11.60;99.90;;;;;;5067860;28;19958;-75
2022/11/10 13:57:10;;;;;;;;;;;11.60;99.90;;;;;;5067693;28;20391;-74
2022/11/10 13:59:44;;;;;;;;;;;11.60;99.90;;;;;;5066098;28;20008;-75
2022/11/10 14:02:28;;;;;;;;;;;11.60;99.90;;;;;;5067942;28;19946;-75
2022/11/10 14:04:54;;;;;;;;;;;11.60;99.90;;;;;;5067375;28;20036;-75
2022/11/10 14:07:19;;;;;;;;;;;11.60;99.90;;;;;;5066256;28;19975;-75
2022/11/10 14:09:49;;;;;;;;;;;11.60;99.90;;;;;;5059849;28;19923;-75
2022/11/10 14:12:20;;;;;;;;;;;11.60;99.90;;;;;;5065511;28;19939;-75
2022/11/10 14:14:51;;;;;;;;;;;11.60;99.90;;;;;;5066389;28;20110;-75
2022/11/10 14:17:22;;;;;;;;;;;11.60;99.90;;;;;;5066159;28;19912;-75
2022/11/10 14:19:49;;;;;;;;;;;11.60;99.90;;;;;;5066135;28;19934;-75
2022/11/10 14:22:24;;;;;;;;;;;11.70;99.90;;;;;;5063901;28;19919;-75
2022/11/10 14:24:57;;;;;;;;;;;11.70;99.90;;;;;;5066261;28;19913;-75
2022/11/10 14:27:24;;;;;;;;;;;11.70;99.90;;;;;;5064248;28;19912;-75
2022/11/10 14:30:02;;;;;;;;;;;11.70;99.90;;;;;;5061175;28;20000;-75
2022/11/10 14:32:28;;;;;;;;;;;11.70;99.90;;;;;;5067396;28;19916;-75
2022/11/10 14:34:55;;;;;;;;;;;11.70;99.90;;;;;;5067393;28;19913;-76
2022/11/10 14:37:24;;;;;;;;;;;11.70;99.90;;;;;;5067668;28;19927;-74
2022/11/10 14:40:00;;;;;;;;;;;11.70;99.90;;;;;;5066850;28;19923;-75